createdAt,value
2023-07-26T00:03:48.601Z,97666.61
2023-07-26T00:08:50.763Z,97661.91
2023-07-26T00:13:52.842Z,97671.98
2023-07-26T00:18:54.805Z,97675.00
2023-07-26T00:23:57.203Z,97676.61
2023-07-26T00:28:59.199Z,97680.14
2023-07-26T00:34:02.160Z,97674.67
2023-07-26T00:39:04.609Z,97659.54
2023-07-26T00:44:06.877Z,97661.70
2023-07-26T00:49:08.728Z,97665.10
2023-07-26T00:54:11.136Z,97663.41
2023-07-26T00:59:13.748Z,97675.38
2023-07-26T01:04:15.625Z,97671.98
2023-07-26T01:09:39.294Z,97663.56
2023-07-26T01:14:48.764Z,97665.09
2023-07-26T01:19:51.276Z,97678.44
2023-07-26T01:24:53.392Z,97673.83
2023-07-26T01:29:57.924Z,97680.92
2023-07-26T01:34:59.964Z,97691.54
2023-07-26T01:40:06.504Z,97693.05
2023-07-26T01:45:10.480Z,97686.83
2023-07-26T01:50:12.349Z,97673.55
2023-07-26T01:55:14.457Z,97675.02
2023-07-26T02:00:16.498Z,97671.85
2023-07-26T02:05:18.600Z,97670.80
2023-07-26T02:10:20.839Z,97663.13
2023-07-26T02:15:22.758Z,97662.65
2023-07-26T02:20:30.521Z,97666.69
2023-07-26T02:25:32.384Z,97679.23
2023-07-26T02:30:34.187Z,97687.09
2023-07-26T02:35:36.284Z,97690.02
2023-07-26T02:40:39.520Z,97700.30
2023-07-26T02:45:41.462Z,97701.19
2023-07-26T02:50:43.460Z,97697.13
2023-07-26T02:55:45.566Z,97694.86
2023-07-26T03:00:53.137Z,97695.36
2023-07-26T03:05:57.833Z,97704.06
2023-07-26T03:10:59.764Z,97706.29
2023-07-26T03:16:01.857Z,97707.17
2023-07-26T03:21:03.868Z,97721.52
2023-07-26T03:26:05.919Z,97722.59
2023-07-26T03:31:08.261Z,97721.85
2023-07-26T03:36:10.765Z,97722.10
2023-07-26T03:41:12.581Z,97724.48
2023-07-26T03:46:14.464Z,97733.77
2023-07-26T03:51:16.494Z,97737.51
2023-07-26T03:56:18.488Z,97748.95
2023-07-26T04:01:20.794Z,97747.59
2023-07-26T04:06:22.809Z,97753.27
2023-07-26T04:11:24.666Z,97753.33
2023-07-26T04:16:26.587Z,97752.00
2023-07-26T04:21:28.501Z,97752.57
2023-07-26T04:26:30.591Z,97743.90
2023-07-26T04:31:32.872Z,97741.99
2023-07-26T04:36:35.282Z,97743.20
2023-07-26T04:41:37.558Z,97746.61
2023-07-26T04:46:39.456Z,97768.26
2023-07-26T04:51:41.299Z,97780.36
2023-07-26T04:56:44.401Z,97784.39
2023-07-26T05:01:46.598Z,97776.98
2023-07-26T05:06:49.282Z,97786.05
2023-07-26T05:11:51.252Z,97798.48
2023-07-26T05:16:53.473Z,97814.48
2023-07-26T05:21:55.696Z,97821.61
2023-07-26T05:26:59.440Z,97834.85
2023-07-26T05:32:01.457Z,97832.27
2023-07-26T05:37:04.165Z,97839.45
2023-07-26T05:42:06.510Z,97844.70
2023-07-26T05:47:10.629Z,97855.06
2023-07-26T05:52:13.602Z,97863.71
2023-07-26T05:57:15.551Z,97861.69
2023-07-26T06:02:17.498Z,97862.44
2023-07-26T06:07:21.349Z,97856.25
2023-07-26T06:12:23.281Z,97854.86
2023-07-26T06:17:25.618Z,97863.77
2023-07-26T06:22:30.059Z,97869.54
2023-07-26T06:27:32.238Z,97867.59
2023-07-26T06:32:34.469Z,97873.92
2023-07-26T06:37:37.110Z,97885.93
2023-07-26T06:42:39.142Z,97893.75
2023-07-26T06:47:41.178Z,97902.87
2023-07-26T06:52:46.792Z,97913.86
2023-07-26T06:57:48.820Z,97913.33
2023-07-26T07:03:05.108Z,97900.03
2023-07-26T07:08:07.070Z,97894.94
2023-07-26T07:13:09.157Z,97897.83
2023-07-26T07:18:15.828Z,97897.20
2023-07-26T07:23:18.356Z,97896.94
2023-07-26T07:28:21.244Z,97904.10
2023-07-26T07:33:23.298Z,97898.60
2023-07-26T07:38:25.585Z,97900.84
2023-07-26T07:43:28.344Z,97913.83
2023-07-26T07:48:30.356Z,97931.50
2023-07-26T07:53:33.662Z,97938.11
2023-07-26T07:58:35.807Z,97945.61
2023-07-26T08:03:38.047Z,97950.98
2023-07-26T08:08:40.753Z,97948.88
2023-07-26T08:13:44.036Z,97961.38
2023-07-26T08:18:47.217Z,97964.81
2023-07-26T08:23:49.220Z,97971.02
2023-07-26T08:28:51.774Z,97982.17
2023-07-26T08:38:55.848Z,98004.70
2023-07-26T08:44:01.498Z,98012.64
2023-07-26T08:49:03.827Z,98023.67
2023-07-26T08:54:05.847Z,98032.98
2023-07-26T08:59:08.370Z,98034.27
2023-07-26T09:04:11.559Z,98028.87
2023-07-26T09:09:13.969Z,98030.47
2023-07-26T09:14:17.702Z,98033.78
2023-07-26T09:19:29.265Z,98037.52
2023-07-26T09:24:37.488Z,98055.08
2023-07-26T09:29:42.141Z,98061.30
2023-07-26T09:34:46.028Z,98068.60
2023-07-26T09:39:48.351Z,98072.98
2023-07-26T09:44:59.819Z,98075.92
2023-07-26T09:55:09.594Z,98073.53
2023-07-26T10:00:13.902Z,98073.92
2023-07-26T10:05:18.549Z,98084.49
2023-07-26T10:10:23.085Z,98091.09
2023-07-26T10:15:28.064Z,98101.98
2023-07-26T10:20:32.121Z,98108.97
2023-07-26T10:25:34.784Z,98115.67
2023-07-26T10:30:38.771Z,98115.44
2023-07-26T10:35:44.614Z,98121.71
2023-07-26T10:40:46.830Z,98127.12
2023-07-26T10:45:55.396Z,98138.80
2023-07-26T10:50:58.613Z,98143.48
2023-07-26T10:56:19.173Z,98146.52
2023-07-26T11:01:41.198Z,98143.25
2023-07-26T11:07:02.597Z,98148.74
2023-07-26T11:12:11.640Z,98153.66
2023-07-26T11:17:21.478Z,98159.48
2023-07-26T11:22:23.481Z,98172.04
2023-07-26T11:27:25.812Z,98186.03
2023-07-26T11:32:29.597Z,98191.90
2023-07-26T11:37:31.675Z,98196.64
2023-07-26T11:42:34.677Z,98199.19
2023-07-26T11:47:37.452Z,98212.69
2023-07-26T11:52:39.737Z,98212.13
2023-07-26T11:57:42.082Z,98220.14
2023-07-26T12:02:44.385Z,98223.71
2023-07-26T12:07:52.057Z,98226.42
2023-07-26T12:13:00.589Z,98239.38
2023-07-26T12:18:04.734Z,98244.08
2023-07-26T12:23:06.662Z,98242.41
2023-07-26T12:28:09.390Z,98242.27
2023-07-26T12:33:13.741Z,98254.37
2023-07-26T12:38:23.105Z,98260.48
2023-07-26T12:43:31.601Z,98256.56
2023-07-26T12:48:37.080Z,98264.83
2023-07-26T12:53:39.416Z,98264.36
2023-07-26T12:58:56.621Z,98269.84
2023-07-26T13:04:04.899Z,98276.61
2023-07-26T13:09:07.419Z,98274.54
2023-07-26T13:14:09.827Z,98274.30
2023-07-26T13:19:12.360Z,98274.78
2023-07-26T13:24:14.309Z,98279.06
2023-07-26T13:29:16.227Z,98286.48
2023-07-26T13:34:19.797Z,98285.55
2023-07-26T13:39:21.832Z,98289.04
2023-07-26T13:44:23.686Z,98296.28
2023-07-26T13:49:25.541Z,98295.25
2023-07-26T13:54:27.508Z,98297.16
2023-07-26T13:59:29.464Z,98298.75
2023-07-26T14:04:32.855Z,98302.27
2023-07-26T14:09:34.868Z,98305.99
2023-07-26T14:14:38.766Z,98310.37
2023-07-26T14:19:40.749Z,98316.19
2023-07-26T14:24:42.585Z,98311.86
2023-07-26T14:29:44.521Z,98303.75
2023-07-26T14:34:46.373Z,98301.61
2023-07-26T14:39:50.619Z,98300.90
2023-07-26T14:44:52.982Z,98305.82
2023-07-26T14:50:03.104Z,98310.20
2023-07-26T14:55:06.126Z,98310.98
2023-07-26T15:00:10.277Z,98307.25
2023-07-26T15:05:12.241Z,98302.64
2023-07-26T15:10:15.509Z,98313.48
2023-07-26T15:15:19.521Z,98315.87
2023-07-26T15:20:21.310Z,98309.81
2023-07-26T15:25:23.270Z,98308.06
2023-07-26T15:30:25.638Z,98309.17
2023-07-26T15:35:31.762Z,98316.10
2023-07-26T15:55:55.804Z,98323.02
2023-07-26T16:00:58.994Z,98326.75
2023-07-26T16:11:06.238Z,98320.39
2023-07-26T16:21:13.892Z,98311.36
2023-07-26T16:26:17.265Z,98296.41
2023-07-26T16:31:19.331Z,98298.39
2023-07-26T16:36:21.446Z,98300.14
2023-07-26T16:41:23.462Z,98310.80
2023-07-26T16:46:29.783Z,98311.91
2023-07-26T16:51:39.502Z,98318.58
2023-07-26T16:56:41.786Z,98318.74
2023-07-26T17:01:44.374Z,98324.40
2023-07-26T17:06:46.512Z,98326.58
2023-07-26T17:11:48.797Z,98321.41
2023-07-26T17:16:53.617Z,98320.84
2023-07-26T17:21:55.694Z,98322.14
2023-07-26T17:26:58.420Z,98322.84
2023-07-26T17:32:00.318Z,98325.00
2023-07-26T17:37:02.414Z,98329.16
2023-07-26T17:42:04.818Z,98332.98
2023-07-26T17:47:07.131Z,98337.20
2023-07-26T17:52:09.095Z,98352.39
2023-07-26T17:57:12.174Z,98346.27
2023-07-26T18:02:14.311Z,98352.95
2023-07-26T18:07:16.847Z,98357.30
2023-07-26T18:12:18.862Z,98363.48
2023-07-26T18:17:20.786Z,98365.15
2023-07-26T18:22:23.984Z,98377.77
2023-07-26T18:27:32.645Z,98379.17
2023-07-26T18:32:34.621Z,98384.22
2023-07-26T18:37:37.145Z,98391.71
2023-07-26T18:42:39.568Z,98397.06
2023-07-26T18:47:41.994Z,98398.81
2023-07-26T18:52:44.448Z,98404.08
2023-07-26T18:57:50.642Z,98403.04
2023-07-26T19:02:52.895Z,98405.95
2023-07-26T19:07:54.829Z,98406.56
2023-07-26T19:12:56.997Z,98406.80
2023-07-26T19:18:00.810Z,98412.51
2023-07-26T19:23:04.452Z,98410.76
2023-07-26T19:28:06.423Z,98412.51
2023-07-26T19:33:08.642Z,98417.38
2023-07-26T19:38:10.770Z,98422.08
2023-07-26T19:43:12.896Z,98419.33
2023-07-26T19:48:15.201Z,98420.83
2023-07-26T19:53:19.523Z,98422.11
2023-07-26T19:58:21.928Z,98421.23
2023-07-26T20:03:26.543Z,98425.68
2023-07-26T20:08:29.148Z,98421.34
2023-07-26T20:13:31.262Z,98425.95
2023-07-26T20:18:33.299Z,98422.27
2023-07-26T20:23:35.907Z,98429.58
2023-07-26T20:28:38.058Z,98434.86
2023-07-26T20:33:40.442Z,98439.94
2023-07-26T20:38:42.778Z,98435.41
2023-07-26T20:43:44.780Z,98436.13
2023-07-26T20:48:48.084Z,98433.67
2023-07-26T20:53:49.862Z,98428.86
2023-07-26T20:58:51.737Z,98426.61
2023-07-26T21:03:53.964Z,98430.04
2023-07-26T21:08:57.965Z,98433.79
2023-07-26T21:14:03.026Z,98433.74
2023-07-26T21:19:05.138Z,98438.92
2023-07-26T21:24:07.151Z,98446.26
2023-07-26T21:29:09.290Z,98445.75
2023-07-26T21:34:11.164Z,98451.41
2023-07-26T21:39:33.088Z,98448.84
2023-07-26T21:44:35.261Z,98451.29
2023-07-26T21:49:37.120Z,98457.02
2023-07-26T21:54:39.107Z,98457.48
2023-07-26T21:59:41.205Z,98457.70
2023-07-26T22:04:43.391Z,98462.94
2023-07-26T22:09:45.484Z,98470.45
2023-07-26T22:14:47.651Z,98474.74
2023-07-26T22:19:52.571Z,98473.29
2023-07-26T22:24:54.562Z,98460.11
2023-07-26T22:29:56.678Z,98461.17
2023-07-26T22:34:58.497Z,98475.89
2023-07-26T22:40:00.351Z,98481.18
2023-07-26T22:45:02.370Z,98486.92
2023-07-26T22:50:05.118Z,98486.73
2023-07-26T22:55:08.168Z,98493.19
2023-07-26T23:00:10.869Z,98492.08
2023-07-26T23:05:14.274Z,98492.52
2023-07-26T23:10:17.605Z,98501.48
2023-07-26T23:15:19.658Z,98500.39
2023-07-26T23:20:21.611Z,98507.20
2023-07-26T23:25:24.386Z,98504.55
2023-07-26T23:30:26.414Z,98506.16
2023-07-26T23:35:49.865Z,98506.79
2023-07-26T23:41:11.705Z,98508.14
2023-07-26T23:46:13.816Z,98506.30
2023-07-26T23:51:15.789Z,98497.42
2023-07-26T23:56:17.711Z,98504.13
